sensor_id;sensor_type;location;lat;lon;timestamp;P1;durP1;ratioP1;P2;durP2;ratioP2
72379;SDS011;60354;47.798;12.472;2023-01-28T00:00:34;18.42;;;8.85;;
72379;SDS011;60354;47.798;12.472;2023-01-28T00:03:00;18.25;;;9.20;;
72379;SDS011;60354;47.798;12.472;2023-01-28T00:05:25;26.17;;;10.50;;
72379;SDS011;60354;47.798;12.472;2023-01-28T00:07:53;15.45;;;8.15;;
72379;SDS011;60354;47.798;12.472;2023-01-28T00:10:20;15.13;;;9.02;;
72379;SDS011;60354;47.798;12.472;2023-01-28T00:12:45;16.88;;;9.07;;
72379;SDS011;60354;47.798;12.472;2023-01-28T00:15:11;15.40;;;8.65;;
72379;SDS011;60354;47.798;12.472;2023-01-28T00:17:37;15.85;;;8.50;;
72379;SDS011;60354;47.798;12.472;2023-01-28T00:20:03;17.05;;;9.20;;
72379;SDS011;60354;47.798;12.472;2023-01-28T00:22:29;17.35;;;9.02;;
72379;SDS011;60354;47.798;12.472;2023-01-28T00:24:56;17.65;;;9.50;;
72379;SDS011;60354;47.798;12.472;2023-01-28T00:27:21;17.30;;;9.02;;
72379;SDS011;60354;47.798;12.472;2023-01-28T00:29:47;16.77;;;9.02;;
72379;SDS011;60354;47.798;12.472;2023-01-28T00:32:13;16.95;;;9.00;;
72379;SDS011;60354;47.798;12.472;2023-01-28T00:34:38;15.70;;;8.63;;
72379;SDS011;60354;47.798;12.472;2023-01-28T00:37:05;16.05;;;8.45;;
72379;SDS011;60354;47.798;12.472;2023-01-28T00:39:31;18.15;;;9.15;;
72379;SDS011;60354;47.798;12.472;2023-01-28T00:41:59;17.55;;;8.90;;
72379;SDS011;60354;47.798;12.472;2023-01-28T00:44:24;18.73;;;9.73;;
72379;SDS011;60354;47.798;12.472;2023-01-28T00:46:50;16.42;;;9.25;;
72379;SDS011;60354;47.798;12.472;2023-01-28T00:49:15;18.67;;;9.25;;
72379;SDS011;60354;47.798;12.472;2023-01-28T00:51:41;17.42;;;9.25;;
72379;SDS011;60354;47.798;12.472;2023-01-28T00:54:07;17.38;;;9.07;;
72379;SDS011;60354;47.798;12.472;2023-01-28T00:56:32;17.63;;;8.85;;
72379;SDS011;60354;47.798;12.472;2023-01-28T00:58:58;17.02;;;8.82;;
72379;SDS011;60354;47.798;12.472;2023-01-28T01:01:24;18.02;;;9.20;;
72379;SDS011;60354;47.798;12.472;2023-01-28T01:03:52;19.52;;;9.80;;
72379;SDS011;60354;47.798;12.472;2023-01-28T01:06:29;18.58;;;9.32;;
72379;SDS011;60354;47.798;12.472;2023-01-28T01:08:59;17.48;;;9.20;;
72379;SDS011;60354;47.798;12.472;2023-01-28T01:11:25;17.00;;;9.23;;
72379;SDS011;60354;47.798;12.472;2023-01-28T01:13:52;14.98;;;8.68;;
72379;SDS011;60354;47.798;12.472;2023-01-28T01:16:19;16.08;;;8.55;;
72379;SDS011;60354;47.798;12.472;2023-01-28T01:18:47;16.70;;;8.95;;
72379;SDS011;60354;47.798;12.472;2023-01-28T01:21:15;16.83;;;9.13;;
72379;SDS011;60354;47.798;12.472;2023-01-28T01:23:43;18.13;;;9.18;;
72379;SDS011;60354;47.798;12.472;2023-01-28T01:26:09;17.63;;;9.65;;
72379;SDS011;60354;47.798;12.472;2023-01-28T01:28:35;15.25;;;8.52;;
72379;SDS011;60354;47.798;12.472;2023-01-28T01:31:06;17.05;;;9.23;;
72379;SDS011;60354;47.798;12.472;2023-01-28T01:33:33;20.48;;;9.68;;
72379;SDS011;60354;47.798;12.472;2023-01-28T01:35:59;19.10;;;9.55;;
72379;SDS011;60354;47.798;12.472;2023-01-28T01:38:25;19.23;;;9.45;;
72379;SDS011;60354;47.798;12.472;2023-01-28T01:40:51;17.73;;;10.02;;
72379;SDS011;60354;47.798;12.472;2023-01-28T01:43:17;18.63;;;9.32;;
72379;SDS011;60354;47.798;12.472;2023-01-28T01:45:44;19.45;;;9.30;;
72379;SDS011;60354;47.798;12.472;2023-01-28T01:48:21;20.00;;;10.30;;
72379;SDS011;60354;47.798;12.472;2023-01-28T01:50:55;16.92;;;9.00;;
72379;SDS011;60354;47.798;12.472;2023-01-28T01:53:25;19.45;;;9.18;;
72379;SDS011;60354;47.798;12.472;2023-01-28T01:55:53;17.85;;;9.32;;
72379;SDS011;60354;47.798;12.472;2023-01-28T01:58:25;18.75;;;9.60;;
72379;SDS011;60354;47.798;12.472;2023-01-28T02:00:54;17.50;;;9.55;;
72379;SDS011;60354;47.798;12.472;2023-01-28T02:03:21;17.02;;;9.45;;
72379;SDS011;60354;47.798;12.472;2023-01-28T02:05:55;18.48;;;9.52;;
72379;SDS011;60354;47.798;12.472;2023-01-28T02:08:21;18.67;;;9.52;;
72379;SDS011;60354;47.798;12.472;2023-01-28T02:11:07;21.17;;;9.80;;
72379;SDS011;60354;47.798;12.472;2023-01-28T02:13:36;19.90;;;9.45;;
72379;SDS011;60354;47.798;12.472;2023-01-28T02:16:05;18.77;;;9.63;;
72379;SDS011;60354;47.798;12.472;2023-01-28T02:18:31;18.65;;;9.48;;
72379;SDS011;60354;47.798;12.472;2023-01-28T02:34:39;18.42;;;9.20;;
72379;SDS011;60354;47.798;12.472;2023-01-28T02:37:46;20.23;;;10.02;;
72379;SDS011;60354;47.798;12.472;2023-01-28T02:40:21;21.45;;;9.50;;
72379;SDS011;60354;47.798;12.472;2023-01-28T02:42:51;25.63;;;11.15;;
72379;SDS011;60354;47.798;12.472;2023-01-28T02:45:19;23.50;;;11.13;;
72379;SDS011;60354;47.798;12.472;2023-01-28T02:48:11;24.13;;;10.43;;
72379;SDS011;60354;47.798;12.472;2023-01-28T02:50:45;23.42;;;10.50;;
72379;SDS011;60354;47.798;12.472;2023-01-28T02:59:08;23.85;;;10.95;;
72379;SDS011;60354;47.798;12.472;2023-01-28T03:02:02;24.45;;;11.07;;
72379;SDS011;60354;47.798;12.472;2023-01-28T03:04:45;26.10;;;11.90;;
72379;SDS011;60354;47.798;12.472;2023-01-28T03:07:16;25.83;;;11.50;;
72379;SDS011;60354;47.798;12.472;2023-01-28T03:09:44;26.15;;;11.45;;
72379;SDS011;60354;47.798;12.472;2023-01-28T03:12:17;25.30;;;12.65;;
72379;SDS011;60354;47.798;12.472;2023-01-28T03:15:06;23.70;;;10.95;;
72379;SDS011;60354;47.798;12.472;2023-01-28T03:24:16;26.33;;;11.70;;
72379;SDS011;60354;47.798;12.472;2023-01-28T03:30:07;24.15;;;10.93;;
72379;SDS011;60354;47.798;12.472;2023-01-28T03:32:55;22.08;;;10.27;;
72379;SDS011;60354;47.798;12.472;2023-01-28T03:35:40;24.30;;;11.38;;
72379;SDS011;60354;47.798;12.472;2023-01-28T03:38:25;23.42;;;11.05;;
72379;SDS011;60354;47.798;12.472;2023-01-28T03:40:59;23.90;;;11.27;;
72379;SDS011;60354;47.798;12.472;2023-01-28T03:43:30;23.88;;;11.20;;
72379;SDS011;60354;47.798;12.472;2023-01-28T03:45:56;23.40;;;11.30;;
72379;SDS011;60354;47.798;12.472;2023-01-28T03:48:23;26.02;;;11.13;;
72379;SDS011;60354;47.798;12.472;2023-01-28T03:50:50;23.85;;;11.27;;
72379;SDS011;60354;47.798;12.472;2023-01-28T03:53:16;25.83;;;11.90;;
72379;SDS011;60354;47.798;12.472;2023-01-28T03:55:50;22.27;;;10.48;;
72379;SDS011;60354;47.798;12.472;2023-01-28T03:58:17;24.40;;;11.35;;
72379;SDS011;60354;47.798;12.472;2023-01-28T04:00:44;21.75;;;10.60;;
72379;SDS011;60354;47.798;12.472;2023-01-28T04:03:12;23.45;;;11.30;;
72379;SDS011;60354;47.798;12.472;2023-01-28T04:06:03;25.58;;;11.40;;
72379;SDS011;60354;47.798;12.472;2023-01-28T04:08:50;22.33;;;9.93;;
72379;SDS011;60354;47.798;12.472;2023-01-28T04:11:30;23.38;;;10.65;;
72379;SDS011;60354;47.798;12.472;2023-01-28T04:13:58;22.40;;;10.27;;
72379;SDS011;60354;47.798;12.472;2023-01-28T04:16:25;22.70;;;10.98;;
72379;SDS011;60354;47.798;12.472;2023-01-28T04:18:52;20.50;;;10.60;;
72379;SDS011;60354;47.798;12.472;2023-01-28T04:21:17;25.52;;;11.27;;
72379;SDS011;60354;47.798;12.472;2023-01-28T04:23:44;22.25;;;10.40;;
72379;SDS011;60354;47.798;12.472;2023-01-28T04:26:12;22.38;;;10.40;;
72379;SDS011;60354;47.798;12.472;2023-01-28T04:28:37;21.50;;;10.85;;
72379;SDS011;60354;47.798;12.472;2023-01-28T04:31:04;23.27;;;11.30;;
72379;SDS011;60354;47.798;12.472;2023-01-28T04:33:43;23.90;;;10.35;;
72379;SDS011;60354;47.798;12.472;2023-01-28T04:36:18;21.83;;;10.57;;
72379;SDS011;60354;47.798;12.472;2023-01-28T04:39:09;20.77;;;10.00;;
72379;SDS011;60354;47.798;12.472;2023-01-28T04:41:35;22.27;;;10.23;;
72379;SDS011;60354;47.798;12.472;2023-01-28T04:44:06;22.70;;;10.77;;
72379;SDS011;60354;47.798;12.472;2023-01-28T04:47:04;19.52;;;9.38;;
72379;SDS011;60354;47.798;12.472;2023-01-28T04:49:39;20.40;;;9.82;;
72379;SDS011;60354;47.798;12.472;2023-01-28T04:52:31;23.10;;;10.18;;
72379;SDS011;60354;47.798;12.472;2023-01-28T04:55:06;24.42;;;11.18;;
72379;SDS011;60354;47.798;12.472;2023-01-28T04:57:32;23.83;;;10.95;;
72379;SDS011;60354;47.798;12.472;2023-01-28T04:59:58;22.83;;;10.48;;
72379;SDS011;60354;47.798;12.472;2023-01-28T05:02:25;21.88;;;9.93;;
72379;SDS011;60354;47.798;12.472;2023-01-28T05:04:51;23.30;;;10.15;;
72379;SDS011;60354;47.798;12.472;2023-01-28T05:07:55;20.15;;;9.68;;
72379;SDS011;60354;47.798;12.472;2023-01-28T05:10:30;22.35;;;9.68;;
72379;SDS011;60354;47.798;12.472;2023-01-28T05:12:56;21.33;;;9.23;;
72379;SDS011;60354;47.798;12.472;2023-01-28T05:15:22;20.63;;;9.70;;
72379;SDS011;60354;47.798;12.472;2023-01-28T05:17:52;25.17;;;9.77;;
72379;SDS011;60354;47.798;12.472;2023-01-28T05:20:20;21.83;;;10.00;;
72379;SDS011;60354;47.798;12.472;2023-01-28T05:22:48;20.52;;;10.30;;
72379;SDS011;60354;47.798;12.472;2023-01-28T05:25:19;19.42;;;9.73;;
72379;SDS011;60354;47.798;12.472;2023-01-28T05:27:49;22.15;;;10.30;;
72379;SDS011;60354;47.798;12.472;2023-01-28T05:30:16;23.40;;;9.98;;
72379;SDS011;60354;47.798;12.472;2023-01-28T05:32:45;20.73;;;8.95;;
72379;SDS011;60354;47.798;12.472;2023-01-28T05:35:13;22.15;;;9.93;;
72379;SDS011;60354;47.798;12.472;2023-01-28T05:37:38;21.85;;;9.65;;
72379;SDS011;60354;47.798;12.472;2023-01-28T05:40:04;23.42;;;10.18;;
72379;SDS011;60354;47.798;12.472;2023-01-28T05:42:30;26.45;;;9.90;;
72379;SDS011;60354;47.798;12.472;2023-01-28T05:45:10;20.55;;;9.30;;
72379;SDS011;60354;47.798;12.472;2023-01-28T05:47:39;21.38;;;9.90;;
72379;SDS011;60354;47.798;12.472;2023-01-28T05:50:36;20.58;;;9.82;;
72379;SDS011;60354;47.798;12.472;2023-01-28T05:53:15;18.52;;;9.30;;
72379;SDS011;60354;47.798;12.472;2023-01-28T05:55:46;22.27;;;9.77;;
72379;SDS011;60354;47.798;12.472;2023-01-28T05:58:16;20.40;;;9.85;;
72379;SDS011;60354;47.798;12.472;2023-01-28T06:00:42;22.25;;;10.43;;
72379;SDS011;60354;47.798;12.472;2023-01-28T06:03:07;21.73;;;10.32;;
72379;SDS011;60354;47.798;12.472;2023-01-28T06:05:34;19.38;;;9.82;;
72379;SDS011;60354;47.798;12.472;2023-01-28T06:08:00;21.50;;;9.63;;
72379;SDS011;60354;47.798;12.472;2023-01-28T06:10:26;19.88;;;9.43;;
72379;SDS011;60354;47.798;12.472;2023-01-28T06:12:54;22.05;;;9.50;;
72379;SDS011;60354;47.798;12.472;2023-01-28T06:15:38;21.83;;;9.50;;
72379;SDS011;60354;47.798;12.472;2023-01-28T06:18:33;19.80;;;9.20;;
72379;SDS011;60354;47.798;12.472;2023-01-28T06:20:58;19.25;;;9.63;;
72379;SDS011;60354;47.798;12.472;2023-01-28T06:23:24;19.15;;;9.23;;
72379;SDS011;60354;47.798;12.472;2023-01-28T06:25:53;20.30;;;9.63;;
72379;SDS011;60354;47.798;12.472;2023-01-28T06:28:20;22.10;;;9.48;;
72379;SDS011;60354;47.798;12.472;2023-01-28T06:30:49;20.20;;;9.93;;
72379;SDS011;60354;47.798;12.472;2023-01-28T06:33:16;19.00;;;9.75;;
72379;SDS011;60354;47.798;12.472;2023-01-28T06:35:42;19.48;;;9.95;;
72379;SDS011;60354;47.798;12.472;2023-01-28T06:38:08;21.33;;;10.40;;
72379;SDS011;60354;47.798;12.472;2023-01-28T06:40:33;19.75;;;9.45;;
72379;SDS011;60354;47.798;12.472;2023-01-28T06:42:59;19.42;;;9.43;;
72379;SDS011;60354;47.798;12.472;2023-01-28T06:45:24;22.67;;;11.00;;
72379;SDS011;60354;47.798;12.472;2023-01-28T06:47:50;17.95;;;9.52;;
72379;SDS011;60354;47.798;12.472;2023-01-28T06:50:16;21.30;;;9.85;;
72379;SDS011;60354;47.798;12.472;2023-01-28T06:52:41;24.60;;;10.90;;
72379;SDS011;60354;47.798;12.472;2023-01-28T06:55:07;23.88;;;11.70;;
72379;SDS011;60354;47.798;12.472;2023-01-28T06:57:33;21.48;;;11.40;;
72379;SDS011;60354;47.798;12.472;2023-01-28T06:59:58;26.13;;;13.30;;
72379;SDS011;60354;47.798;12.472;2023-01-28T07:02:24;25.20;;;11.75;;
72379;SDS011;60354;47.798;12.472;2023-01-28T07:04:49;23.05;;;11.10;;
72379;SDS011;60354;47.798;12.472;2023-01-28T07:07:15;22.20;;;10.88;;
72379;SDS011;60354;47.798;12.472;2023-01-28T07:09:40;23.02;;;9.80;;
72379;SDS011;60354;47.798;12.472;2023-01-28T07:12:06;21.95;;;10.20;;
72379;SDS011;60354;47.798;12.472;2023-01-28T07:14:31;24.55;;;10.65;;
72379;SDS011;60354;47.798;12.472;2023-01-28T07:16:57;21.10;;;10.13;;
72379;SDS011;60354;47.798;12.472;2023-01-28T07:19:22;23.92;;;10.75;;
72379;SDS011;60354;47.798;12.472;2023-01-28T07:21:48;21.98;;;10.27;;
72379;SDS011;60354;47.798;12.472;2023-01-28T07:24:13;22.50;;;10.60;;
72379;SDS011;60354;47.798;12.472;2023-01-28T07:26:39;22.35;;;10.55;;
72379;SDS011;60354;47.798;12.472;2023-01-28T07:29:04;23.83;;;10.35;;
72379;SDS011;60354;47.798;12.472;2023-01-28T07:31:30;19.27;;;9.75;;
72379;SDS011;60354;47.798;12.472;2023-01-28T07:33:55;19.15;;;9.52;;
72379;SDS011;60354;47.798;12.472;2023-01-28T07:36:21;25.38;;;10.27;;
72379;SDS011;60354;47.798;12.472;2023-01-28T07:38:46;22.50;;;10.15;;
72379;SDS011;60354;47.798;12.472;2023-01-28T07:41:12;19.60;;;9.45;;
72379;SDS011;60354;47.798;12.472;2023-01-28T07:43:37;22.63;;;11.18;;
72379;SDS011;60354;47.798;12.472;2023-01-28T07:46:03;25.13;;;13.35;;
72379;SDS011;60354;47.798;12.472;2023-01-28T07:48:28;22.02;;;11.77;;
72379;SDS011;60354;47.798;12.472;2023-01-28T07:50:57;24.42;;;11.82;;
72379;SDS011;60354;47.798;12.472;2023-01-28T07:53:23;22.50;;;11.73;;
72379;SDS011;60354;47.798;12.472;2023-01-28T07:55:48;23.40;;;10.55;;
72379;SDS011;60354;47.798;12.472;2023-01-28T07:58:14;19.38;;;9.52;;
72379;SDS011;60354;47.798;12.472;2023-01-28T08:00:39;22.30;;;10.50;;
72379;SDS011;60354;47.798;12.472;2023-01-28T08:03:14;20.95;;;10.93;;
72379;SDS011;60354;47.798;12.472;2023-01-28T08:05:41;24.77;;;11.70;;
72379;SDS011;60354;47.798;12.472;2023-01-28T08:08:12;27.30;;;12.48;;
72379;SDS011;60354;47.798;12.472;2023-01-28T08:10:38;22.67;;;10.48;;
72379;SDS011;60354;47.798;12.472;2023-01-28T08:13:04;23.63;;;10.43;;
72379;SDS011;60354;47.798;12.472;2023-01-28T08:15:30;23.55;;;10.95;;
72379;SDS011;60354;47.798;12.472;2023-01-28T08:17:56;24.38;;;11.05;;
72379;SDS011;60354;47.798;12.472;2023-01-28T08:20:23;25.90;;;10.98;;
72379;SDS011;60354;47.798;12.472;2023-01-28T08:22:49;21.92;;;10.82;;
72379;SDS011;60354;47.798;12.472;2023-01-28T08:25:15;23.52;;;10.73;;
72379;SDS011;60354;47.798;12.472;2023-01-28T08:27:41;22.88;;;12.15;;
72379;SDS011;60354;47.798;12.472;2023-01-28T08:30:06;21.33;;;11.00;;
72379;SDS011;60354;47.798;12.472;2023-01-28T08:32:34;22.48;;;11.73;;
72379;SDS011;60354;47.798;12.472;2023-01-28T08:35:03;22.38;;;11.85;;
72379;SDS011;60354;47.798;12.472;2023-01-28T08:37:29;24.60;;;11.30;;
72379;SDS011;60354;47.798;12.472;2023-01-28T08:39:54;45.60;;;22.65;;
72379;SDS011;60354;47.798;12.472;2023-01-28T08:42:20;45.42;;;23.85;;
72379;SDS011;60354;47.798;12.472;2023-01-28T08:44:45;30.73;;;16.48;;
72379;SDS011;60354;47.798;12.472;2023-01-28T08:47:12;26.90;;;14.45;;
72379;SDS011;60354;47.798;12.472;2023-01-28T08:49:40;22.98;;;12.20;;
72379;SDS011;60354;47.798;12.472;2023-01-28T08:52:06;17.23;;;8.75;;
72379;SDS011;60354;47.798;12.472;2023-01-28T08:54:31;20.15;;;10.77;;
72379;SDS011;60354;47.798;12.472;2023-01-28T08:56:57;21.30;;;11.38;;
72379;SDS011;60354;47.798;12.472;2023-01-28T08:59:23;22.60;;;11.70;;
72379;SDS011;60354;47.798;12.472;2023-01-28T09:01:48;20.55;;;10.57;;
72379;SDS011;60354;47.798;12.472;2023-01-28T09:04:15;22.10;;;11.23;;
72379;SDS011;60354;47.798;12.472;2023-01-28T09:06:40;27.42;;;14.50;;
72379;SDS011;60354;47.798;12.472;2023-01-28T09:09:06;29.40;;;16.83;;
72379;SDS011;60354;47.798;12.472;2023-01-28T09:11:31;25.10;;;12.70;;
72379;SDS011;60354;47.798;12.472;2023-01-28T09:13:57;21.60;;;11.63;;
72379;SDS011;60354;47.798;12.472;2023-01-28T09:16:22;24.15;;;12.15;;
72379;SDS011;60354;47.798;12.472;2023-01-28T09:18:48;23.63;;;11.57;;
72379;SDS011;60354;47.798;12.472;2023-01-28T09:21:15;21.95;;;11.63;;
72379;SDS011;60354;47.798;12.472;2023-01-28T09:23:41;24.13;;;11.35;;
72379;SDS011;60354;47.798;12.472;2023-01-28T09:26:07;26.13;;;12.60;;
72379;SDS011;60354;47.798;12.472;2023-01-28T09:28:33;29.63;;;13.63;;
72379;SDS011;60354;47.798;12.472;2023-01-28T09:31:03;24.75;;;12.50;;
72379;SDS011;60354;47.798;12.472;2023-01-28T09:33:30;26.92;;;12.55;;
72379;SDS011;60354;47.798;12.472;2023-01-28T09:36:00;24.17;;;12.30;;
72379;SDS011;60354;47.798;12.472;2023-01-28T09:38:29;27.73;;;13.20;;
72379;SDS011;60354;47.798;12.472;2023-01-28T09:40:56;23.80;;;11.98;;
72379;SDS011;60354;47.798;12.472;2023-01-28T09:46:14;22.33;;;11.70;;
72379;SDS011;60354;47.798;12.472;2023-01-28T09:48:46;21.90;;;11.35;;
72379;SDS011;60354;47.798;12.472;2023-01-28T09:51:19;23.73;;;11.60;;
72379;SDS011;60354;47.798;12.472;2023-01-28T09:53:53;23.50;;;11.18;;
72379;SDS011;60354;47.798;12.472;2023-01-28T09:56:24;25.17;;;11.75;;
72379;SDS011;60354;47.798;12.472;2023-01-28T09:58:53;23.23;;;11.38;;
72379;SDS011;60354;47.798;12.472;2023-01-28T10:07:19;18.88;;;9.65;;
72379;SDS011;60354;47.798;12.472;2023-01-28T10:09:55;22.40;;;10.77;;
72379;SDS011;60354;47.798;12.472;2023-01-28T10:18:33;21.23;;;10.52;;
72379;SDS011;60354;47.798;12.472;2023-01-28T10:21:09;23.10;;;11.63;;
72379;SDS011;60354;47.798;12.472;2023-01-28T10:26:24;22.33;;;11.10;;
72379;SDS011;60354;47.798;12.472;2023-01-28T10:28:59;21.23;;;10.65;;
72379;SDS011;60354;47.798;12.472;2023-01-28T10:31:30;23.20;;;10.95;;
72379;SDS011;60354;47.798;12.472;2023-01-28T10:33:59;21.08;;;10.32;;
72379;SDS011;60354;47.798;12.472;2023-01-28T10:36:26;22.60;;;9.98;;
72379;SDS011;60354;47.798;12.472;2023-01-28T10:38:53;21.92;;;11.50;;
72379;SDS011;60354;47.798;12.472;2023-01-28T10:41:19;22.25;;;10.85;;
72379;SDS011;60354;47.798;12.472;2023-01-28T10:43:46;23.15;;;10.63;;
72379;SDS011;60354;47.798;12.472;2023-01-28T10:48:52;21.00;;;10.45;;
72379;SDS011;60354;47.798;12.472;2023-01-28T10:51:37;20.90;;;10.23;;
72379;SDS011;60354;47.798;12.472;2023-01-28T10:54:21;19.15;;;9.98;;
72379;SDS011;60354;47.798;12.472;2023-01-28T10:56:49;19.00;;;9.73;;
72379;SDS011;60354;47.798;12.472;2023-01-28T10:59:24;20.65;;;10.13;;
72379;SDS011;60354;47.798;12.472;2023-01-28T11:01:55;20.23;;;10.05;;
72379;SDS011;60354;47.798;12.472;2023-01-28T11:04:30;20.15;;;9.90;;
72379;SDS011;60354;47.798;12.472;2023-01-28T11:09:49;21.13;;;10.48;;
72379;SDS011;60354;47.798;12.472;2023-01-28T11:14:59;18.83;;;9.95;;
72379;SDS011;60354;47.798;12.472;2023-01-28T11:17:27;18.60;;;9.30;;
72379;SDS011;60354;47.798;12.472;2023-01-28T11:19:55;21.02;;;10.80;;
72379;SDS011;60354;47.798;12.472;2023-01-28T11:22:35;23.08;;;11.43;;
72379;SDS011;60354;47.798;12.472;2023-01-28T11:25:04;18.50;;;9.98;;
72379;SDS011;60354;47.798;12.472;2023-01-28T11:27:39;18.17;;;9.38;;
72379;SDS011;60354;47.798;12.472;2023-01-28T11:30:24;22.05;;;9.50;;
72379;SDS011;60354;47.798;12.472;2023-01-28T11:35:36;17.92;;;8.55;;
72379;SDS011;60354;47.798;12.472;2023-01-28T11:38:01;19.30;;;8.10;;
72379;SDS011;60354;47.798;12.472;2023-01-28T11:40:27;17.10;;;8.63;;
72379;SDS011;60354;47.798;12.472;2023-01-28T11:42:53;17.45;;;8.60;;
72379;SDS011;60354;47.798;12.472;2023-01-28T11:48:26;18.60;;;10.18;;
72379;SDS011;60354;47.798;12.472;2023-01-28T11:51:06;18.45;;;10.00;;
72379;SDS011;60354;47.798;12.472;2023-01-28T12:02:00;17.40;;;8.60;;
72379;SDS011;60354;47.798;12.472;2023-01-28T12:04:45;17.15;;;8.60;;
72379;SDS011;60354;47.798;12.472;2023-01-28T12:07:16;17.67;;;8.80;;
72379;SDS011;60354;47.798;12.472;2023-01-28T12:20:57;16.02;;;7.93;;
72379;SDS011;60354;47.798;12.472;2023-01-28T12:23:42;17.10;;;8.27;;
72379;SDS011;60354;47.798;12.472;2023-01-28T12:34:00;18.42;;;9.27;;
72379;SDS011;60354;47.798;12.472;2023-01-28T12:41:23;19.13;;;9.38;;
72379;SDS011;60354;47.798;12.472;2023-01-28T12:46:36;21.13;;;10.07;;
72379;SDS011;60354;47.798;12.472;2023-01-28T12:54:28;18.90;;;9.55;;
72379;SDS011;60354;47.798;12.472;2023-01-28T12:56:55;22.67;;;10.65;;
72379;SDS011;60354;47.798;12.472;2023-01-28T13:04:50;26.90;;;11.98;;
72379;SDS011;60354;47.798;12.472;2023-01-28T13:07:24;23.58;;;12.05;;
72379;SDS011;60354;47.798;12.472;2023-01-28T13:10:04;24.95;;;12.13;;
72379;SDS011;60354;47.798;12.472;2023-01-28T13:12:37;21.88;;;11.05;;
72379;SDS011;60354;47.798;12.472;2023-01-28T13:15:04;31.63;;;14.13;;
72379;SDS011;60354;47.798;12.472;2023-01-28T13:17:35;29.52;;;12.50;;
72379;SDS011;60354;47.798;12.472;2023-01-28T13:20:01;28.13;;;12.43;;
72379;SDS011;60354;47.798;12.472;2023-01-28T13:22:38;24.30;;;11.65;;
72379;SDS011;60354;47.798;12.472;2023-01-28T13:25:21;21.67;;;11.38;;
72379;SDS011;60354;47.798;12.472;2023-01-28T13:28:01;24.33;;;11.65;;
72379;SDS011;60354;47.798;12.472;2023-01-28T13:30:30;25.70;;;12.32;;
72379;SDS011;60354;47.798;12.472;2023-01-28T13:32:59;22.20;;;10.77;;
72379;SDS011;60354;47.798;12.472;2023-01-28T13:35:32;18.90;;;9.50;;
72379;SDS011;60354;47.798;12.472;2023-01-28T13:38:12;19.77;;;9.32;;
72379;SDS011;60354;47.798;12.472;2023-01-28T13:40:42;17.83;;;9.32;;
72379;SDS011;60354;47.798;12.472;2023-01-28T13:46:02;19.25;;;9.93;;
72379;SDS011;60354;47.798;12.472;2023-01-28T13:48:48;20.65;;;10.68;;
72379;SDS011;60354;47.798;12.472;2023-01-28T13:51:20;18.80;;;9.27;;
72379;SDS011;60354;47.798;12.472;2023-01-28T13:53:59;18.73;;;9.50;;
72379;SDS011;60354;47.798;12.472;2023-01-28T13:56:27;20.00;;;10.60;;
72379;SDS011;60354;47.798;12.472;2023-01-28T14:07:27;21.30;;;10.93;;
72379;SDS011;60354;47.798;12.472;2023-01-28T14:10:30;26.20;;;12.52;;
72379;SDS011;60354;47.798;12.472;2023-01-28T14:15:57;26.63;;;12.43;;
72379;SDS011;60354;47.798;12.472;2023-01-28T14:18:43;27.40;;;13.02;;
72379;SDS011;60354;47.798;12.472;2023-01-28T14:21:12;23.17;;;11.30;;
72379;SDS011;60354;47.798;12.472;2023-01-28T14:26:58;22.00;;;10.00;;
72379;SDS011;60354;47.798;12.472;2023-01-28T14:32:10;22.40;;;11.05;;
72379;SDS011;60354;47.798;12.472;2023-01-28T14:34:39;22.30;;;10.73;;
72379;SDS011;60354;47.798;12.472;2023-01-28T14:37:07;23.80;;;11.05;;
72379;SDS011;60354;47.798;12.472;2023-01-28T14:39:56;24.25;;;11.73;;
72379;SDS011;60354;47.798;12.472;2023-01-28T14:42:25;23.00;;;11.40;;
72379;SDS011;60354;47.798;12.472;2023-01-28T14:58:17;26.13;;;11.80;;
72379;SDS011;60354;47.798;12.472;2023-01-28T15:00:54;25.65;;;10.60;;
72379;SDS011;60354;47.798;12.472;2023-01-28T15:03:21;26.70;;;11.88;;
72379;SDS011;60354;47.798;12.472;2023-01-28T15:05:46;19.13;;;9.52;;
72379;SDS011;60354;47.798;12.472;2023-01-28T15:08:18;23.73;;;10.95;;
72379;SDS011;60354;47.798;12.472;2023-01-28T15:10:45;24.52;;;10.98;;
72379;SDS011;60354;47.798;12.472;2023-01-28T15:13:25;24.23;;;11.27;;
72379;SDS011;60354;47.798;12.472;2023-01-28T15:15:54;20.88;;;10.77;;
72379;SDS011;60354;47.798;12.472;2023-01-28T15:18:25;22.58;;;11.20;;
72379;SDS011;60354;47.798;12.472;2023-01-28T15:20:58;22.30;;;10.85;;
72379;SDS011;60354;47.798;12.472;2023-01-28T15:23:31;22.15;;;10.70;;
72379;SDS011;60354;47.798;12.472;2023-01-28T15:26:03;24.80;;;12.27;;
72379;SDS011;60354;47.798;12.472;2023-01-28T15:28:36;26.60;;;11.88;;
72379;SDS011;60354;47.798;12.472;2023-01-28T15:31:03;26.20;;;12.65;;
72379;SDS011;60354;47.798;12.472;2023-01-28T15:33:30;26.00;;;12.73;;
72379;SDS011;60354;47.798;12.472;2023-01-28T15:35:56;29.08;;;12.82;;
72379;SDS011;60354;47.798;12.472;2023-01-28T15:38:23;23.10;;;11.77;;
72379;SDS011;60354;47.798;12.472;2023-01-28T15:40:58;23.67;;;11.93;;
72379;SDS011;60354;47.798;12.472;2023-01-28T15:43:28;25.60;;;12.75;;
72379;SDS011;60354;47.798;12.472;2023-01-28T15:45:57;31.67;;;15.10;;
72379;SDS011;60354;47.798;12.472;2023-01-28T15:48:27;32.80;;;15.25;;
72379;SDS011;60354;47.798;12.472;2023-01-28T15:51:05;37.65;;;18.33;;
72379;SDS011;60354;47.798;12.472;2023-01-28T15:53:34;38.67;;;17.33;;
72379;SDS011;60354;47.798;12.472;2023-01-28T15:56:07;39.03;;;17.13;;
72379;SDS011;60354;47.798;12.472;2023-01-28T15:58:34;29.23;;;14.25;;
72379;SDS011;60354;47.798;12.472;2023-01-28T16:03:34;45.90;;;20.70;;
72379;SDS011;60354;47.798;12.472;2023-01-28T16:08:38;76.55;;;33.05;;
72379;SDS011;60354;47.798;12.472;2023-01-28T16:11:12;43.70;;;19.90;;
72379;SDS011;60354;47.798;12.472;2023-01-28T16:13:47;32.25;;;15.90;;
72379;SDS011;60354;47.798;12.472;2023-01-28T16:16:13;31.63;;;14.60;;
72379;SDS011;60354;47.798;12.472;2023-01-28T16:18:45;30.48;;;14.77;;
72379;SDS011;60354;47.798;12.472;2023-01-28T16:21:27;30.30;;;14.80;;
72379;SDS011;60354;47.798;12.472;2023-01-28T16:26:27;28.00;;;13.40;;
72379;SDS011;60354;47.798;12.472;2023-01-28T16:28:55;27.95;;;13.70;;
72379;SDS011;60354;47.798;12.472;2023-01-28T16:31:20;29.48;;;13.23;;
72379;SDS011;60354;47.798;12.472;2023-01-28T16:33:46;23.98;;;12.43;;
72379;SDS011;60354;47.798;12.472;2023-01-28T16:36:12;25.00;;;12.52;;
72379;SDS011;60354;47.798;12.472;2023-01-28T16:38:40;24.27;;;11.95;;
72379;SDS011;60354;47.798;12.472;2023-01-28T16:41:18;26.05;;;13.05;;
72379;SDS011;60354;47.798;12.472;2023-01-28T16:43:49;26.83;;;12.75;;
72379;SDS011;60354;47.798;12.472;2023-01-28T16:46:14;24.92;;;12.77;;
72379;SDS011;60354;47.798;12.472;2023-01-28T16:48:40;28.27;;;14.07;;
72379;SDS011;60354;47.798;12.472;2023-01-28T16:51:05;26.98;;;13.60;;
72379;SDS011;60354;47.798;12.472;2023-01-28T16:53:33;27.35;;;13.20;;
72379;SDS011;60354;47.798;12.472;2023-01-28T16:55:59;29.08;;;14.20;;
72379;SDS011;60354;47.798;12.472;2023-01-28T16:58:25;70.97;;;27.55;;